createdAt,value
2024-01-09T00:00:45.271Z,12.00
2024-01-09T00:01:45.695Z,11.50
2024-01-09T00:02:45.948Z,11.90
2024-01-09T00:03:46.277Z,11.60
2024-01-09T00:04:46.491Z,12.10
2024-01-09T00:05:46.773Z,12.10
2024-01-09T00:06:47.287Z,11.60
2024-01-09T00:07:47.367Z,12.20
2024-01-09T00:08:47.692Z,12.00
2024-01-09T00:09:47.918Z,12.40
2024-01-09T00:10:48.275Z,11.70
2024-01-09T00:11:48.654Z,10.70
2024-01-09T00:12:48.818Z,12.00
2024-01-09T00:13:49.065Z,11.80
2024-01-09T00:14:49.545Z,11.10
2024-01-09T00:15:49.765Z,11.70
2024-01-09T00:16:49.987Z,10.90
2024-01-09T00:17:50.256Z,11.50
2024-01-09T00:18:50.561Z,12.30
2024-01-09T00:19:50.913Z,11.50
2024-01-09T00:20:51.137Z,11.90
2024-01-09T00:21:51.365Z,11.50
2024-01-09T00:22:51.611Z,12.40
2024-01-09T00:23:51.994Z,11.80
2024-01-09T00:24:52.161Z,11.80
2024-01-09T00:25:52.930Z,12.30
2024-01-09T00:26:52.884Z,12.50
2024-01-09T00:27:53.054Z,11.80
2024-01-09T00:28:53.447Z,11.80
2024-01-09T00:29:53.753Z,11.50
2024-01-09T00:30:54.104Z,12.80
2024-01-09T00:31:54.328Z,12.60
2024-01-09T00:32:54.883Z,12.80
2024-01-09T00:33:54.982Z,12.70
2024-01-09T00:34:55.248Z,11.90
2024-01-09T00:35:55.468Z,12.10
2024-01-09T00:36:55.682Z,12.30
2024-01-09T00:37:56.030Z,11.90
2024-01-09T00:38:56.306Z,11.90
2024-01-09T00:39:56.527Z,12.10
2024-01-09T00:40:56.831Z,12.30
2024-01-09T00:41:57.220Z,11.80
2024-01-09T00:42:57.448Z,12.40
2024-01-09T00:43:57.745Z,11.90
2024-01-09T00:44:58.012Z,11.60
2024-01-09T00:45:58.208Z,11.50
2024-01-09T00:46:58.564Z,12.00
2024-01-09T00:47:59.061Z,11.50
2024-01-09T00:48:59.380Z,12.10
2024-01-09T00:49:59.432Z,11.80
2024-01-09T00:50:59.919Z,11.30
2024-01-09T00:52:00.071Z,11.80
2024-01-09T00:53:00.319Z,11.20
2024-01-09T00:54:00.516Z,11.20
2024-01-09T00:55:00.787Z,10.80
2024-01-09T00:56:01.005Z,11.20
2024-01-09T00:57:01.270Z,11.20
2024-01-09T00:58:01.499Z,11.10
2024-01-09T00:59:01.688Z,10.60
2024-01-09T01:00:02.013Z,11.80
2024-01-09T01:01:02.362Z,12.20
2024-01-09T01:02:02.666Z,11.70
2024-01-09T01:03:02.872Z,11.20
2024-01-09T01:04:03.326Z,11.00
2024-01-09T01:05:03.536Z,11.80
2024-01-09T01:06:03.825Z,11.90
2024-01-09T01:07:04.103Z,11.60
2024-01-09T01:08:04.348Z,11.60
2024-01-09T01:09:04.584Z,11.30
2024-01-09T01:10:04.850Z,10.40
2024-01-09T01:11:05.300Z,10.90
2024-01-09T01:12:05.461Z,10.10
2024-01-09T01:13:05.647Z,12.00
2024-01-09T01:14:06.017Z,11.90
2024-01-09T01:15:06.176Z,11.90
2024-01-09T01:16:06.398Z,11.70
2024-01-09T01:17:06.647Z,11.20
2024-01-09T01:18:06.955Z,11.30
2024-01-09T01:19:07.136Z,11.30
2024-01-09T01:20:07.552Z,12.00
2024-01-09T01:21:07.853Z,10.80
2024-01-09T01:22:08.025Z,11.10
2024-01-09T01:23:08.365Z,10.80
2024-01-09T01:24:08.739Z,11.00
2024-01-09T01:25:08.924Z,10.30
2024-01-09T01:26:09.317Z,9.90
2024-01-09T01:27:09.483Z,10.40
2024-01-09T01:28:09.829Z,10.80
2024-01-09T01:29:10.164Z,11.40
2024-01-09T01:30:10.524Z,10.70
2024-01-09T01:31:10.750Z,11.20
2024-01-09T01:32:11.016Z,10.90
2024-01-09T01:33:11.431Z,10.90
2024-01-09T01:34:11.727Z,11.00
2024-01-09T01:35:11.909Z,10.50
2024-01-09T01:36:12.284Z,10.90
2024-01-09T01:37:12.482Z,12.70
2024-01-09T01:38:12.754Z,11.80
2024-01-09T01:39:13.016Z,11.40
2024-01-09T01:40:13.203Z,11.10
2024-01-09T01:41:13.547Z,10.90
2024-01-09T01:42:13.750Z,12.20
2024-01-09T01:43:14.085Z,11.60
2024-01-09T01:44:14.522Z,11.10
2024-01-09T01:45:14.742Z,11.30
2024-01-09T01:46:15.070Z,11.40
2024-01-09T01:47:15.310Z,11.50
2024-01-09T01:48:15.647Z,11.10
2024-01-09T01:49:15.935Z,11.90
2024-01-09T01:50:16.235Z,11.90
2024-01-09T01:51:16.443Z,11.80
2024-01-09T01:52:16.758Z,11.30
2024-01-09T01:53:17.104Z,12.10
2024-01-09T01:54:17.259Z,11.50
2024-01-09T01:55:17.591Z,11.50
2024-01-09T01:56:18.003Z,11.80
2024-01-09T01:57:18.272Z,11.70
2024-01-09T01:58:18.516Z,11.00
2024-01-09T01:59:18.746Z,11.40
2024-01-09T02:00:18.976Z,11.60
2024-01-09T02:01:19.220Z,11.90
2024-01-09T02:02:19.639Z,11.60
2024-01-09T02:03:19.881Z,11.40
2024-01-09T02:04:20.179Z,11.70
2024-01-09T02:05:20.466Z,11.20
2024-01-09T02:06:20.738Z,10.60
2024-01-09T02:07:20.971Z,11.10
2024-01-09T02:08:21.300Z,11.30
2024-01-09T02:09:21.486Z,10.90
2024-01-09T02:10:21.859Z,11.40
2024-01-09T02:11:22.132Z,10.90
2024-01-09T02:12:22.320Z,12.60
2024-01-09T02:13:22.578Z,10.30
2024-01-09T02:14:22.909Z,12.00
2024-01-09T02:15:23.189Z,11.50
2024-01-09T02:16:23.509Z,11.60
2024-01-09T02:17:23.856Z,11.90
2024-01-09T02:18:24.256Z,11.40
2024-01-09T02:19:24.345Z,11.20
2024-01-09T02:20:24.716Z,12.10
2024-01-09T02:21:24.931Z,12.40
2024-01-09T02:22:25.157Z,12.30
2024-01-09T02:23:25.516Z,12.80
2024-01-09T02:24:25.908Z,12.70
2024-01-09T02:25:26.101Z,11.90
2024-01-09T02:26:40.438Z,12.10
2024-01-09T02:27:27.801Z,12.40
2024-01-09T02:28:27.062Z,12.60
2024-01-09T02:29:27.306Z,12.20
2024-01-09T02:30:27.568Z,12.40
2024-01-09T02:31:27.773Z,13.20
2024-01-09T02:32:28.193Z,12.00
2024-01-09T02:33:28.516Z,12.50
2024-01-09T02:34:28.922Z,11.90
2024-01-09T02:35:29.103Z,12.30
2024-01-09T02:36:29.293Z,11.40
2024-01-09T02:37:29.540Z,12.60
2024-01-09T02:38:29.907Z,11.80
2024-01-09T02:39:30.218Z,11.90
2024-01-09T02:40:30.422Z,11.40
2024-01-09T02:41:30.841Z,10.70
2024-01-09T02:42:31.084Z,10.80
2024-01-09T02:43:31.409Z,10.70
2024-01-09T02:44:31.864Z,10.80
2024-01-09T02:45:32.033Z,12.50
2024-01-09T02:46:32.401Z,10.10
2024-01-09T02:47:32.685Z,10.30
2024-01-09T02:48:33.051Z,10.10
2024-01-09T02:49:33.298Z,10.30
2024-01-09T02:50:33.528Z,10.70
2024-01-09T02:51:33.802Z,10.50
2024-01-09T02:52:34.118Z,11.00
2024-01-09T02:53:34.544Z,9.70
2024-01-09T02:54:34.714Z,11.00
2024-01-09T02:55:34.987Z,10.40
2024-01-09T02:56:35.358Z,10.00
2024-01-09T02:57:35.664Z,10.90
2024-01-09T02:58:35.905Z,11.00
2024-01-09T02:59:36.205Z,10.80
2024-01-09T03:00:36.439Z,11.00
2024-01-09T03:01:36.707Z,10.60
2024-01-09T03:02:37.081Z,10.20
2024-01-09T03:03:37.270Z,11.40
2024-01-09T03:04:37.501Z,10.30
2024-01-09T03:05:37.906Z,10.50
2024-01-09T03:06:38.319Z,10.50
2024-01-09T03:07:38.548Z,11.00
2024-01-09T03:08:38.758Z,10.80
2024-01-09T03:09:39.048Z,10.80
2024-01-09T03:10:39.418Z,9.60
2024-01-09T03:11:39.820Z,11.30
2024-01-09T03:12:40.029Z,11.30
2024-01-09T03:13:40.258Z,11.10
2024-01-09T03:14:40.623Z,11.40
2024-01-09T03:15:40.928Z,10.70
2024-01-09T03:16:41.334Z,10.60
2024-01-09T03:17:41.669Z,10.80
2024-01-09T03:18:41.927Z,11.30
2024-01-09T03:19:42.144Z,11.80
2024-01-09T03:20:42.533Z,12.10
2024-01-09T03:21:42.785Z,10.70
2024-01-09T03:22:43.093Z,10.90
2024-01-09T03:23:43.475Z,11.50
2024-01-09T03:24:43.683Z,11.50
2024-01-09T03:25:44.041Z,10.00
2024-01-09T03:26:44.441Z,10.20
2024-01-09T03:27:44.625Z,11.20
2024-01-09T03:28:44.853Z,10.30
2024-01-09T03:29:45.150Z,10.70
2024-01-09T03:30:45.456Z,11.50
2024-01-09T03:31:45.641Z,12.00
2024-01-09T03:32:46.055Z,10.70
2024-01-09T03:33:46.296Z,12.20
2024-01-09T03:34:46.509Z,11.30
2024-01-09T03:35:47.009Z,11.30
2024-01-09T03:36:47.169Z,12.00
2024-01-09T03:37:47.487Z,11.50
2024-01-09T03:38:48.044Z,10.90
2024-01-09T03:39:48.179Z,10.20
2024-01-09T03:40:48.334Z,11.10
2024-01-09T03:41:48.836Z,11.00
2024-01-09T03:42:49.020Z,11.90
2024-01-09T03:43:49.350Z,11.10
2024-01-09T03:44:49.748Z,11.50
2024-01-09T03:45:49.827Z,11.40
2024-01-09T03:46:50.077Z,12.30
2024-01-09T03:47:50.510Z,11.80
2024-01-09T03:48:50.723Z,11.30
2024-01-09T03:49:51.110Z,11.10
2024-01-09T03:50:51.443Z,12.50
2024-01-09T03:51:51.546Z,12.10
2024-01-09T03:52:51.878Z,12.00
2024-01-09T03:53:52.239Z,11.30
2024-01-09T03:54:52.484Z,11.20
2024-01-09T03:55:52.817Z,11.90
2024-01-09T03:56:53.140Z,11.10
2024-01-09T03:57:53.315Z,11.10
2024-01-09T03:58:53.570Z,11.80
2024-01-09T03:59:53.797Z,11.20
2024-01-09T04:00:54.044Z,11.60
2024-01-09T04:01:54.375Z,12.00
2024-01-09T04:02:54.638Z,12.10
2024-01-09T04:03:55.061Z,12.60
2024-01-09T04:04:55.164Z,12.60
2024-01-09T04:05:55.500Z,12.30
2024-01-09T04:06:55.718Z,13.10
2024-01-09T04:07:56.055Z,13.60
2024-01-09T04:08:56.242Z,11.70
2024-01-09T04:09:56.471Z,12.50
2024-01-09T04:10:56.697Z,12.50
2024-01-09T04:11:56.999Z,12.90
2024-01-09T04:12:57.231Z,12.60
2024-01-09T04:13:57.442Z,12.30
2024-01-09T04:14:57.777Z,11.90
2024-01-09T04:15:58.128Z,12.50
2024-01-09T04:16:58.384Z,11.10
2024-01-09T04:17:58.692Z,12.10
2024-01-09T04:18:58.925Z,12.80
2024-01-09T04:19:59.179Z,12.90
2024-01-09T04:20:59.478Z,13.10
2024-01-09T04:21:59.672Z,12.40
2024-01-09T04:22:59.988Z,12.40
2024-01-09T04:24:00.354Z,12.80
2024-01-09T04:25:00.604Z,12.50
2024-01-09T04:26:00.838Z,12.30
2024-01-09T04:27:01.207Z,13.20
2024-01-09T04:28:01.447Z,13.20
2024-01-09T04:29:01.667Z,12.60
2024-01-09T04:30:02.026Z,12.40
2024-01-09T04:31:02.380Z,11.80
2024-01-09T04:32:02.628Z,12.40
2024-01-09T04:33:02.966Z,11.70
2024-01-09T04:34:03.170Z,12.70
2024-01-09T04:35:03.302Z,12.70
2024-01-09T04:36:03.566Z,11.70
2024-01-09T04:37:03.832Z,12.30
2024-01-09T04:38:04.008Z,11.30
2024-01-09T04:39:04.258Z,12.40
2024-01-09T04:40:04.474Z,12.40
2024-01-09T04:41:04.875Z,12.70
2024-01-09T04:42:05.082Z,12.40
2024-01-09T04:43:05.298Z,12.80
2024-01-09T04:44:05.633Z,11.70
2024-01-09T04:45:06.117Z,12.00
2024-01-09T04:46:06.312Z,12.10
2024-01-09T04:47:06.628Z,13.40
2024-01-09T04:48:07.070Z,13.40
2024-01-09T04:49:07.284Z,12.70
2024-01-09T04:50:07.500Z,11.50
2024-01-09T04:51:07.791Z,12.30
2024-01-09T04:52:08.042Z,13.10
2024-01-09T04:53:08.249Z,11.30
2024-01-09T04:54:08.476Z,11.70
2024-01-09T04:55:08.735Z,11.80
2024-01-09T04:56:09.018Z,11.60
2024-01-09T04:57:09.338Z,12.20
2024-01-09T04:58:09.587Z,12.10
2024-01-09T04:59:09.901Z,12.00
2024-01-09T05:00:10.130Z,12.00
2024-01-09T05:01:10.372Z,13.20
2024-01-09T05:02:10.650Z,12.10
2024-01-09T05:03:11.003Z,12.00
2024-01-09T05:04:11.166Z,12.70
2024-01-09T05:05:11.434Z,12.50
2024-01-09T05:06:11.750Z,12.40
2024-01-09T05:07:11.954Z,12.20
2024-01-09T05:08:12.320Z,12.20
2024-01-09T05:09:12.537Z,12.00
2024-01-09T05:10:12.859Z,11.90
2024-01-09T05:11:15.041Z,11.40
2024-01-09T05:12:13.456Z,11.40
2024-01-09T05:13:13.718Z,11.90
2024-01-09T05:14:13.941Z,12.30
2024-01-09T05:15:14.247Z,12.30
2024-01-09T05:16:14.596Z,12.70
2024-01-09T05:17:14.996Z,12.00
2024-01-09T05:18:15.282Z,12.00
2024-01-09T05:19:15.597Z,11.20
2024-01-09T05:20:15.908Z,11.90
2024-01-09T05:21:16.087Z,11.70
2024-01-09T05:22:16.444Z,12.90
2024-01-09T05:23:16.707Z,12.40
2024-01-09T05:24:16.955Z,12.80
2024-01-09T05:25:17.230Z,12.00
2024-01-09T05:26:19.267Z,11.30
2024-01-09T05:27:17.663Z,12.10
2024-01-09T05:28:17.890Z,12.60
2024-01-09T05:29:18.316Z,11.80
2024-01-09T05:30:18.627Z,12.20
2024-01-09T05:31:18.822Z,12.70
2024-01-09T05:32:19.212Z,13.60
2024-01-09T05:33:19.513Z,12.30
2024-01-09T05:34:19.813Z,12.70
2024-01-09T05:35:20.020Z,13.30
2024-01-09T05:36:20.385Z,12.20
2024-01-09T05:37:22.355Z,13.30
2024-01-09T05:38:20.998Z,13.20
2024-01-09T05:39:21.190Z,12.00
2024-01-09T05:40:21.404Z,11.60
2024-01-09T05:41:21.800Z,11.90
2024-01-09T05:42:22.064Z,12.60
2024-01-09T05:43:22.233Z,12.80
2024-01-09T05:44:22.550Z,12.30
2024-01-09T05:45:22.732Z,12.70
2024-01-09T05:46:23.110Z,13.80
2024-01-09T05:47:23.348Z,15.00
2024-01-09T05:48:23.773Z,14.50
2024-01-09T05:49:23.922Z,14.00
2024-01-09T05:50:24.164Z,13.80
2024-01-09T05:51:24.386Z,13.90
2024-01-09T05:52:24.648Z,13.10
2024-01-09T05:53:24.847Z,12.70
2024-01-09T05:54:25.219Z,13.30
2024-01-09T05:55:25.520Z,12.60
2024-01-09T05:56:25.882Z,13.80
2024-01-09T05:57:26.093Z,12.60
2024-01-09T05:58:26.340Z,14.00
2024-01-09T05:59:26.755Z,13.50
2024-01-09T06:00:26.961Z,13.30
2024-01-09T06:01:27.238Z,13.00
2024-01-09T06:02:27.483Z,13.30
2024-01-09T06:03:27.743Z,13.70
2024-01-09T06:04:28.074Z,13.70
2024-01-09T06:05:28.350Z,15.20
2024-01-09T06:06:28.725Z,14.50
2024-01-09T06:07:29.040Z,14.30
2024-01-09T06:08:29.271Z,15.40
2024-01-09T06:09:29.494Z,14.30
2024-01-09T06:10:29.737Z,15.40
2024-01-09T06:11:29.989Z,15.50
2024-01-09T06:12:30.185Z,14.60
2024-01-09T06:13:30.449Z,13.70
2024-01-09T06:14:30.819Z,15.80
2024-01-09T06:15:30.863Z,14.90
2024-01-09T06:16:31.130Z,15.00
2024-01-09T06:17:31.581Z,15.80
2024-01-09T06:18:31.923Z,16.50
2024-01-09T06:19:32.198Z,17.20
2024-01-09T06:20:32.406Z,17.30
2024-01-09T06:21:32.733Z,16.10
2024-01-09T06:22:32.967Z,15.80
2024-01-09T06:23:33.345Z,14.70
2024-01-09T06:24:33.628Z,14.00
2024-01-09T06:25:33.925Z,14.70
2024-01-09T06:26:34.258Z,14.90
2024-01-09T06:27:34.484Z,15.10
2024-01-09T06:28:34.908Z,14.60
2024-01-09T06:29:35.102Z,15.00
2024-01-09T06:30:35.536Z,14.10
2024-01-09T06:31:35.599Z,15.70
2024-01-09T06:32:35.913Z,15.40
2024-01-09T06:33:36.165Z,15.20
2024-01-09T06:34:36.420Z,15.70
2024-01-09T06:35:36.725Z,15.40
2024-01-09T06:36:36.917Z,14.40
2024-01-09T06:37:37.203Z,13.80
2024-01-09T06:38:37.423Z,13.90
2024-01-09T06:39:37.744Z,14.00
2024-01-09T06:42:03.128Z,14.60
2024-01-09T06:42:54.675Z,14.40
2024-01-09T06:43:54.904Z,15.60
2024-01-09T06:44:55.333Z,17.30
2024-01-09T06:45:55.575Z,17.90
2024-01-09T06:46:55.782Z,15.30
2024-01-09T06:47:56.103Z,16.20
2024-01-09T06:48:56.509Z,15.40
2024-01-09T06:49:56.647Z,14.10
2024-01-09T06:50:56.927Z,15.20
2024-01-09T06:51:57.125Z,16.40
2024-01-09T06:52:57.391Z,18.00
2024-01-09T06:53:57.717Z,17.20
2024-01-09T06:54:58.043Z,14.70
2024-01-09T06:55:58.394Z,14.30
2024-01-09T06:56:58.756Z,15.20
2024-01-09T06:57:59.000Z,14.40
2024-01-09T06:58:59.191Z,14.30
2024-01-09T06:59:59.493Z,15.00
2024-01-09T07:00:59.762Z,14.90
2024-01-09T07:02:00.011Z,14.70
2024-01-09T07:03:00.250Z,14.80
2024-01-09T07:04:00.544Z,14.00
2024-01-09T07:05:00.924Z,14.50
2024-01-09T07:06:01.075Z,15.00
2024-01-09T07:07:01.314Z,15.30
2024-01-09T07:08:01.568Z,14.50
2024-01-09T07:09:01.862Z,15.50
2024-01-09T07:10:02.119Z,14.60
2024-01-09T07:11:02.374Z,14.60
2024-01-09T07:12:02.764Z,13.80
2024-01-09T07:13:02.903Z,15.60
2024-01-09T07:14:03.141Z,14.30
2024-01-09T07:15:03.491Z,14.30
2024-01-09T07:16:03.624Z,14.40
2024-01-09T07:17:03.916Z,15.20
2024-01-09T07:18:04.221Z,15.60
2024-01-09T07:19:04.642Z,16.20
2024-01-09T07:20:04.722Z,15.00
2024-01-09T07:21:05.027Z,15.50
2024-01-09T07:22:05.219Z,14.70
2024-01-09T07:23:14.182Z,14.80
2024-01-09T07:24:06.781Z,14.40
2024-01-09T07:25:06.084Z,14.80
2024-01-09T07:26:06.314Z,14.80
2024-01-09T07:27:06.581Z,14.70
2024-01-09T07:28:06.906Z,14.40
2024-01-09T07:29:07.138Z,14.70
2024-01-09T07:30:07.412Z,14.70
2024-01-09T07:31:07.697Z,16.60
2024-01-09T07:32:07.929Z,15.50
2024-01-09T07:33:08.290Z,15.00
2024-01-09T07:34:08.573Z,15.10
2024-01-09T07:35:08.762Z,15.10
2024-01-09T07:36:09.008Z,15.40
2024-01-09T07:37:09.264Z,14.10
2024-01-09T07:38:09.511Z,14.50
2024-01-09T07:39:09.777Z,15.50
2024-01-09T07:40:10.025Z,14.60
2024-01-09T07:41:10.328Z,15.60
2024-01-09T07:42:10.552Z,14.70
2024-01-09T07:43:10.923Z,14.70
2024-01-09T07:44:11.204Z,15.40
2024-01-09T07:45:11.492Z,14.20
2024-01-09T07:46:11.730Z,14.60
2024-01-09T07:47:12.045Z,15.60
2024-01-09T07:48:12.350Z,15.90
2024-01-09T07:49:12.873Z,15.10
2024-01-09T07:50:12.881Z,15.90
2024-01-09T07:51:13.110Z,14.10
2024-01-09T07:52:13.409Z,14.10
2024-01-09T07:53:13.675Z,15.40
2024-01-09T07:54:13.893Z,14.20
2024-01-09T07:55:14.270Z,15.20
2024-01-09T07:56:14.413Z,15.40
2024-01-09T07:57:21.860Z,14.70
2024-01-09T07:58:15.872Z,15.20
2024-01-09T07:59:15.230Z,15.60
2024-01-09T08:00:15.497Z,15.00
2024-01-09T08:01:15.826Z,15.40
2024-01-09T08:02:16.265Z,15.40
2024-01-09T08:03:19.823Z,16.10
2024-01-09T08:04:17.639Z,14.90
2024-01-09T08:05:16.966Z,17.30
2024-01-09T08:06:17.311Z,16.60
2024-01-09T08:07:17.491Z,16.60
2024-01-09T08:08:17.925Z,17.40
2024-01-09T08:09:18.141Z,18.90
2024-01-09T08:10:18.435Z,19.70
2024-01-09T08:11:18.752Z,18.70
2024-01-09T08:12:19.010Z,17.70
2024-01-09T08:13:19.578Z,17.80
2024-01-09T08:15:38.653Z,18.90
2024-01-09T08:16:38.790Z,19.20
2024-01-09T08:17:39.022Z,19.10
2024-01-09T08:18:39.583Z,18.80
2024-01-09T08:19:39.676Z,18.50
2024-01-09T08:20:40.162Z,19.00
2024-01-09T08:21:42.890Z,18.80
2024-01-09T08:22:40.366Z,18.40
2024-01-09T08:23:40.613Z,20.00
2024-01-09T08:24:40.877Z,20.70
2024-01-09T08:25:41.215Z,24.00
2024-01-09T08:26:41.513Z,22.00
2024-01-09T08:27:41.787Z,22.20
2024-01-09T08:28:42.060Z,23.40
2024-01-09T08:29:42.364Z,24.10
2024-01-09T08:30:42.660Z,24.40
2024-01-09T08:31:42.862Z,25.00
2024-01-09T08:32:43.345Z,26.50
2024-01-09T08:33:44.332Z,25.70
2024-01-09T08:34:44.004Z,25.50
2024-01-09T08:35:44.196Z,27.50
2024-01-09T08:36:44.558Z,28.10
2024-01-09T08:37:44.728Z,28.90
2024-01-09T08:38:45.061Z,29.70
2024-01-09T08:39:45.288Z,30.30
2024-01-09T08:40:46.681Z,29.60
2024-01-09T08:41:45.840Z,30.00
2024-01-09T08:42:46.105Z,30.30
2024-01-09T08:43:47.382Z,31.30
2024-01-09T08:44:47.738Z,29.20
2024-01-09T08:45:47.052Z,26.20
2024-01-09T08:46:47.329Z,25.10
2024-01-09T08:47:47.705Z,26.00
2024-01-09T08:48:48.016Z,24.70
2024-01-09T08:49:48.327Z,23.80
2024-01-09T08:50:49.010Z,23.80
2024-01-09T08:51:48.927Z,22.70
2024-01-09T08:52:49.160Z,23.10
2024-01-09T08:53:49.401Z,21.60
2024-01-09T08:54:49.699Z,21.50
2024-01-09T08:55:50.021Z,21.00
2024-01-09T08:56:50.336Z,22.00
2024-01-09T08:57:50.569Z,21.10
2024-01-09T08:58:50.870Z,21.00
2024-01-09T08:59:51.108Z,21.50
2024-01-09T09:00:51.432Z,21.00
2024-01-09T09:01:51.733Z,20.00
2024-01-09T09:02:52.121Z,20.30
2024-01-09T09:03:52.392Z,19.70
2024-01-09T09:04:52.508Z,20.70
2024-01-09T09:05:52.875Z,20.40
2024-01-09T09:06:53.209Z,21.10
2024-01-09T09:07:53.348Z,19.90
2024-01-09T09:08:53.760Z,29.50
2024-01-09T09:09:53.899Z,39.30
2024-01-09T09:10:54.180Z,57.50
2024-01-09T09:11:54.503Z,55.60
2024-01-09T09:12:54.763Z,40.20
2024-01-09T09:13:54.998Z,26.90
2024-01-09T09:14:55.391Z,23.10
2024-01-09T09:15:55.607Z,23.90
2024-01-09T09:16:55.887Z,24.80
2024-01-09T09:17:56.420Z,27.00
2024-01-09T09:18:56.468Z,27.40
2024-01-09T09:19:56.746Z,25.60
2024-01-09T09:20:57.056Z,23.40
2024-01-09T09:21:57.311Z,22.90
2024-01-09T09:22:57.615Z,22.80
2024-01-09T09:23:57.963Z,21.50
2024-01-09T09:24:58.267Z,22.50
2024-01-09T09:25:58.594Z,22.40
2024-01-09T09:26:58.990Z,21.20
2024-01-09T09:27:59.119Z,21.40
2024-01-09T09:29:15.793Z,20.10
2024-01-09T09:30:00.767Z,20.30
2024-01-09T09:31:00.147Z,20.70
2024-01-09T09:32:00.321Z,20.30
2024-01-09T09:33:00.779Z,19.80
2024-01-09T09:34:01.094Z,19.40
2024-01-09T09:35:01.241Z,20.00
2024-01-09T09:36:01.405Z,20.50
2024-01-09T09:37:01.626Z,20.40
2024-01-09T09:38:01.914Z,20.00
2024-01-09T09:39:02.266Z,18.90
2024-01-09T09:40:02.392Z,20.10
2024-01-09T09:41:02.672Z,18.80
2024-01-09T09:42:02.996Z,20.10
2024-01-09T09:43:03.228Z,19.50
2024-01-09T09:44:03.465Z,20.00
2024-01-09T09:45:03.891Z,19.40
2024-01-09T09:46:06.460Z,19.90
2024-01-09T09:47:04.343Z,18.70
2024-01-09T09:48:04.737Z,20.30
2024-01-09T09:49:05.149Z,19.80
2024-01-09T09:50:06.107Z,19.60
2024-01-09T09:51:05.576Z,17.90
2024-01-09T09:52:05.700Z,19.50
2024-01-09T09:53:05.982Z,19.40
2024-01-09T09:54:07.115Z,19.10
2024-01-09T09:55:06.524Z,19.50
2024-01-09T09:56:06.816Z,19.30
2024-01-09T09:57:07.250Z,20.20
2024-01-09T09:58:07.341Z,19.20
2024-01-09T09:59:07.612Z,19.50
2024-01-09T10:00:07.925Z,20.50
2024-01-09T10:01:08.255Z,20.60
2024-01-09T10:02:08.461Z,20.20
2024-01-09T10:03:08.824Z,22.80
2024-01-09T10:04:09.161Z,22.10
2024-01-09T10:05:09.409Z,21.90
2024-01-09T10:06:09.863Z,20.10
2024-01-09T10:07:10.008Z,20.50
2024-01-09T10:08:10.220Z,21.20
2024-01-09T10:09:10.504Z,22.10
2024-01-09T10:10:10.786Z,20.90
2024-01-09T10:11:11.036Z,19.90
2024-01-09T10:12:11.290Z,20.30
2024-01-09T10:13:11.573Z,20.60
2024-01-09T10:14:11.838Z,20.80
2024-01-09T10:15:12.164Z,19.00
2024-01-09T10:16:12.422Z,19.20
2024-01-09T10:17:12.705Z,19.20
2024-01-09T10:18:13.053Z,18.80
2024-01-09T10:19:13.233Z,18.70
2024-01-09T10:20:13.589Z,19.00
2024-01-09T10:21:13.932Z,20.20
2024-01-09T10:22:14.066Z,19.10
2024-01-09T10:23:14.365Z,18.80
2024-01-09T10:24:14.631Z,20.00
2024-01-09T10:25:14.934Z,19.60
2024-01-09T10:26:15.188Z,20.20
2024-01-09T10:27:15.439Z,19.60
2024-01-09T10:28:15.691Z,18.80
2024-01-09T10:29:16.027Z,19.40
2024-01-09T10:30:16.369Z,19.10
2024-01-09T10:31:16.535Z,19.50
2024-01-09T10:32:16.771Z,18.50
2024-01-09T10:33:17.149Z,18.60
2024-01-09T10:34:17.532Z,18.90
2024-01-09T10:35:17.543Z,19.90
2024-01-09T10:36:17.751Z,21.00
2024-01-09T10:37:18.057Z,20.30
2024-01-09T10:38:18.334Z,19.20
2024-01-09T10:39:18.585Z,18.70
2024-01-09T10:40:18.876Z,18.40
2024-01-09T10:41:19.519Z,17.10
2024-01-09T10:42:19.369Z,17.30
2024-01-09T10:43:19.680Z,16.80
2024-01-09T10:44:19.900Z,17.50
2024-01-09T10:45:20.153Z,20.10
2024-01-09T10:46:20.446Z,18.60
2024-01-09T10:47:20.783Z,18.00
2024-01-09T10:48:21.060Z,19.60
2024-01-09T10:49:23.123Z,18.50
2024-01-09T10:50:21.708Z,17.40
2024-01-09T10:51:21.851Z,17.70
2024-01-09T10:52:22.158Z,16.70
2024-01-09T10:53:22.408Z,18.00
2024-01-09T10:54:22.630Z,17.10
2024-01-09T10:55:22.903Z,18.20
2024-01-09T10:56:23.285Z,17.90
2024-01-09T10:57:23.604Z,18.80
2024-01-09T10:58:23.792Z,18.10
2024-01-09T10:59:24.072Z,17.10
2024-01-09T11:00:24.330Z,17.00
2024-01-09T11:01:24.777Z,18.50
2024-01-09T11:02:24.954Z,18.00
2024-01-09T11:03:25.421Z,18.00
2024-01-09T11:04:25.440Z,18.50
2024-01-09T11:05:25.791Z,18.10
2024-01-09T11:06:26.199Z,17.70
2024-01-09T11:07:26.308Z,19.00
2024-01-09T11:08:26.678Z,18.60
2024-01-09T11:09:26.880Z,19.60
2024-01-09T11:10:27.150Z,18.00
2024-01-09T11:11:27.515Z,19.00
2024-01-09T11:12:27.729Z,18.80
2024-01-09T11:13:27.979Z,18.60
2024-01-09T11:14:28.309Z,18.00
2024-01-09T11:15:28.580Z,18.40
2024-01-09T11:16:28.872Z,19.10
2024-01-09T11:17:29.186Z,19.50
2024-01-09T11:18:32.434Z,18.70
2024-01-09T11:19:29.976Z,19.60
2024-01-09T11:20:30.065Z,20.40
2024-01-09T11:21:30.318Z,19.30
2024-01-09T11:22:30.610Z,19.30
2024-01-09T11:23:30.883Z,19.00
2024-01-09T11:24:31.144Z,19.40
2024-01-09T11:25:31.415Z,18.50
2024-01-09T11:26:31.771Z,19.30
2024-01-09T11:27:32.105Z,19.30
2024-01-09T11:28:32.314Z,17.90
2024-01-09T11:29:32.608Z,18.80
2024-01-09T11:30:36.881Z,18.50
2024-01-09T11:31:34.200Z,18.00
2024-01-09T11:32:33.577Z,16.40
2024-01-09T11:33:34.379Z,16.20
2024-01-09T11:34:34.124Z,15.90
2024-01-09T11:35:34.434Z,15.50
2024-01-09T11:36:35.125Z,14.60
2024-01-09T11:37:34.949Z,13.80
2024-01-09T11:38:35.321Z,13.00
2024-01-09T11:39:35.505Z,14.40
2024-01-09T11:40:35.786Z,12.50
2024-01-09T11:41:36.099Z,12.40
2024-01-09T11:42:36.324Z,12.90
2024-01-09T11:43:36.618Z,14.10
2024-01-09T11:44:36.905Z,14.50
2024-01-09T11:45:37.101Z,15.80
2024-01-09T11:46:37.759Z,15.80
2024-01-09T11:47:37.811Z,15.10
2024-01-09T11:48:38.154Z,16.40
2024-01-09T11:49:38.447Z,15.70
2024-01-09T11:50:38.515Z,16.80
2024-01-09T11:51:38.788Z,16.60
2024-01-09T11:52:39.068Z,15.90
2024-01-09T11:53:39.344Z,15.20
2024-01-09T11:54:39.569Z,14.50
2024-01-09T11:55:39.818Z,15.00
2024-01-09T11:56:40.181Z,15.30
2024-01-09T11:57:40.446Z,15.90
2024-01-09T11:58:40.714Z,15.70
2024-01-09T11:59:41.156Z,14.60
2024-01-09T12:00:41.306Z,13.60
2024-01-09T12:01:41.536Z,14.90
2024-01-09T12:02:41.866Z,15.60
2024-01-09T12:03:42.044Z,16.40
2024-01-09T12:04:42.381Z,15.60
2024-01-09T12:05:42.627Z,16.50
2024-01-09T12:06:44.689Z,18.50
2024-01-09T12:07:43.241Z,16.60
2024-01-09T12:08:43.373Z,13.90
2024-01-09T12:09:43.681Z,16.00
2024-01-09T12:10:43.927Z,14.90
2024-01-09T12:11:44.212Z,16.10
2024-01-09T12:12:44.436Z,17.00
2024-01-09T12:13:44.729Z,17.10
2024-01-09T12:14:45.006Z,17.20
2024-01-09T12:15:45.291Z,18.40
2024-01-09T12:16:45.587Z,19.40
2024-01-09T12:17:46.070Z,18.50
2024-01-09T12:18:46.234Z,18.60
2024-01-09T12:19:46.386Z,17.60
2024-01-09T12:20:46.653Z,15.40
2024-01-09T12:21:46.956Z,15.00
2024-01-09T12:22:47.201Z,16.10
2024-01-09T12:24:02.843Z,16.80
2024-01-09T12:24:48.770Z,16.10
2024-01-09T12:25:48.016Z,17.70
2024-01-09T12:26:48.444Z,16.00
2024-01-09T12:27:48.580Z,16.50
2024-01-09T12:28:48.861Z,20.10
2024-01-09T12:29:49.155Z,16.90
2024-01-09T12:30:49.447Z,18.00
2024-01-09T12:31:49.767Z,16.70
2024-01-09T12:32:50.127Z,16.00
2024-01-09T12:33:50.517Z,16.80
2024-01-09T12:34:50.667Z,18.10
2024-01-09T12:35:50.817Z,15.90
2024-01-09T12:36:51.028Z,19.30
2024-01-09T12:37:51.319Z,19.90
2024-01-09T12:38:51.614Z,27.30
2024-01-09T12:39:51.872Z,32.50
2024-01-09T12:40:52.321Z,29.20
2024-01-09T12:41:52.482Z,24.60
2024-01-09T12:42:52.756Z,21.90
2024-01-09T12:43:53.150Z,18.70
2024-01-09T12:44:53.614Z,18.00
2024-01-09T12:45:53.541Z,19.70
2024-01-09T12:46:53.821Z,19.70
2024-01-09T12:47:54.147Z,20.30
2024-01-09T12:48:54.461Z,18.90
2024-01-09T12:50:02.807Z,18.90
2024-01-09T12:50:55.852Z,18.60
2024-01-09T12:51:55.162Z,24.50
2024-01-09T12:52:55.406Z,22.50
2024-01-09T12:53:55.894Z,19.80
2024-01-09T12:54:56.328Z,20.20
2024-01-09T12:55:56.305Z,17.10
2024-01-09T12:56:56.520Z,16.80
2024-01-09T12:57:56.844Z,16.40
2024-01-09T12:58:57.230Z,16.00